createdAt,value
2022-09-27T00:01:45.792Z,25.48
2022-09-27T00:04:12.794Z,28.90
2022-09-27T00:06:41.039Z,29.17
2022-09-27T00:09:08.132Z,27.15
2022-09-27T00:11:38.356Z,27.48
2022-09-27T00:14:06.968Z,28.90
2022-09-27T00:16:36.570Z,31.38
2022-09-27T00:19:06.570Z,28.73
2022-09-27T00:21:34.973Z,28.77
2022-09-27T00:24:02.110Z,32.25
2022-09-27T00:26:29.625Z,29.50
2022-09-27T00:28:56.538Z,31.10
2022-09-27T00:31:31.891Z,29.40
2022-09-27T00:34:01.453Z,30.08
2022-09-27T00:36:29.893Z,29.73
2022-09-27T00:43:50.165Z,34.42
2022-09-27T00:46:31.732Z,35.17
2022-09-27T00:49:14.068Z,32.83
2022-09-27T00:51:43.815Z,33.10
2022-09-27T00:54:45.270Z,31.42
2022-09-27T00:57:12.062Z,37.50
2022-09-27T00:59:44.132Z,35.75
2022-09-27T01:02:11.731Z,35.45
2022-09-27T01:04:39.648Z,34.20
2022-09-27T01:07:06.727Z,36.28
2022-09-27T01:09:34.972Z,35.55
2022-09-27T01:12:17.332Z,36.92
2022-09-27T01:15:18.168Z,35.15
2022-09-27T01:18:20.639Z,36.80
2022-09-27T01:21:10.616Z,36.38
2022-09-27T01:24:29.106Z,37.10
2022-09-27T01:27:37.021Z,38.75
2022-09-27T01:30:33.255Z,37.83
2022-09-27T01:33:14.717Z,36.90
2022-09-27T01:36:00.258Z,36.42
2022-09-27T01:38:39.000Z,37.95
2022-09-27T01:41:36.029Z,38.85
2022-09-27T01:44:35.225Z,38.40
2022-09-27T01:47:23.366Z,43.88
2022-09-27T01:50:06.780Z,39.67
2022-09-27T01:52:43.913Z,40.38
2022-09-27T01:55:14.773Z,41.40
2022-09-27T01:58:37.558Z,44.00
2022-09-27T02:01:06.136Z,42.38
2022-09-27T02:03:39.651Z,42.35
2022-09-27T02:06:39.190Z,43.60
2022-09-27T02:09:39.009Z,44.45
2022-09-27T02:12:23.564Z,42.38
2022-09-27T02:15:05.569Z,42.00
2022-09-27T02:17:42.248Z,42.03
2022-09-27T02:20:41.034Z,40.95
2022-09-27T02:23:31.761Z,43.17
2022-09-27T02:26:26.089Z,43.53
2022-09-27T02:29:07.292Z,43.13
2022-09-27T02:31:42.871Z,43.33
2022-09-27T02:34:18.431Z,42.40
2022-09-27T02:36:45.594Z,43.22
2022-09-27T02:39:12.614Z,42.75
2022-09-27T02:41:40.063Z,42.97
2022-09-27T02:44:11.657Z,40.85
2022-09-27T02:47:06.175Z,40.40
2022-09-27T02:49:45.000Z,41.72
2022-09-27T02:52:52.093Z,41.70
2022-09-27T02:55:32.260Z,41.70
2022-09-27T02:58:36.382Z,40.78
2022-09-27T03:01:45.932Z,42.20
2022-09-27T03:04:51.178Z,39.20
2022-09-27T03:07:18.494Z,41.85
2022-09-27T03:09:51.348Z,44.10
2022-09-27T03:12:28.480Z,43.33
2022-09-27T03:15:00.311Z,46.70
2022-09-27T03:17:54.194Z,48.38
2022-09-27T03:20:32.500Z,48.55
2022-09-27T03:23:07.826Z,45.75
2022-09-27T03:25:35.852Z,50.22
2022-09-27T03:28:03.667Z,52.55
2022-09-27T03:30:31.472Z,54.60
2022-09-27T03:33:00.586Z,51.13
2022-09-27T03:35:48.847Z,52.97
2022-09-27T03:38:16.031Z,53.80
2022-09-27T03:40:43.869Z,53.33
2022-09-27T03:43:11.369Z,52.70
2022-09-27T03:45:38.277Z,52.03
2022-09-27T03:48:08.815Z,52.97
2022-09-27T03:50:35.975Z,54.20
2022-09-27T03:53:02.860Z,52.50
2022-09-27T03:55:30.648Z,49.95
2022-09-27T03:57:57.418Z,48.92
2022-09-27T04:00:25.326Z,53.00
2022-09-27T04:02:52.319Z,53.17
2022-09-27T04:05:26.766Z,48.63
2022-09-27T04:07:57.486Z,50.95
2022-09-27T04:11:08.106Z,50.00
2022-09-27T04:13:35.519Z,47.80
2022-09-27T04:16:03.575Z,47.35
2022-09-27T04:18:55.498Z,51.15
2022-09-27T04:21:41.148Z,49.83
2022-09-27T04:24:11.878Z,51.30
2022-09-27T04:26:44.313Z,47.85
2022-09-27T04:29:13.361Z,50.40
2022-09-27T04:31:47.761Z,49.95
2022-09-27T04:34:50.608Z,50.53
2022-09-27T04:37:23.032Z,53.17
2022-09-27T04:39:53.894Z,52.45
2022-09-27T04:42:20.759Z,52.55
2022-09-27T04:44:47.990Z,50.20
2022-09-27T04:47:14.984Z,49.60
2022-09-27T04:49:42.833Z,50.95
2022-09-27T04:52:09.696Z,58.67
2022-09-27T04:54:36.884Z,54.28
2022-09-27T04:57:12.390Z,53.83
2022-09-27T04:59:41.862Z,54.45
2022-09-27T05:02:10.850Z,54.80
2022-09-27T05:04:50.608Z,64.30
2022-09-27T05:07:26.174Z,55.60
2022-09-27T05:10:30.655Z,59.03
2022-09-27T05:12:57.616Z,55.53
2022-09-27T05:15:24.654Z,62.97
2022-09-27T05:18:11.739Z,58.22
2022-09-27T05:21:01.106Z,59.13
2022-09-27T05:23:35.413Z,60.83
2022-09-27T05:26:07.495Z,65.07
2022-09-27T05:28:35.265Z,63.83
2022-09-27T05:31:02.980Z,63.42
2022-09-27T05:33:33.294Z,65.05
2022-09-27T05:36:24.763Z,62.60
2022-09-27T05:38:52.366Z,65.70
2022-09-27T05:41:55.267Z,66.93
2022-09-27T05:44:22.230Z,72.05
2022-09-27T05:46:56.219Z,68.47
2022-09-27T05:49:23.090Z,72.00
2022-09-27T05:51:49.942Z,67.65
2022-09-27T05:54:16.931Z,71.28
2022-09-27T05:56:45.011Z,69.75
2022-09-27T05:59:21.503Z,64.15
2022-09-27T06:02:12.096Z,65.57
2022-09-27T06:04:58.602Z,68.57
2022-09-27T06:07:46.198Z,64.57
2022-09-27T06:10:20.995Z,59.63
2022-09-27T06:12:47.818Z,57.83
2022-09-27T06:15:39.404Z,57.92
2022-09-27T06:18:10.045Z,58.13
2022-09-27T06:20:39.661Z,59.28
2022-09-27T06:23:18.642Z,52.97
2022-09-27T06:26:10.217Z,51.63
2022-09-27T06:29:10.369Z,55.70
2022-09-27T06:31:45.456Z,59.70
2022-09-27T06:34:33.736Z,51.58
2022-09-27T06:37:00.556Z,47.10
2022-09-27T06:39:29.003Z,49.33
2022-09-27T06:42:14.158Z,48.30
2022-09-27T06:45:03.671Z,41.63
2022-09-27T06:47:52.655Z,44.53
2022-09-27T06:50:49.274Z,44.78
2022-09-27T06:53:19.061Z,48.22
2022-09-27T06:55:45.945Z,42.80
2022-09-27T06:58:38.209Z,41.33
2022-09-27T07:01:29.825Z,41.47
2022-09-27T07:04:33.436Z,44.47
2022-09-27T07:07:00.293Z,45.85
2022-09-27T07:09:33.179Z,46.42
2022-09-27T07:12:02.227Z,45.05
2022-09-27T07:14:30.646Z,49.65
2022-09-27T07:16:57.876Z,46.67
2022-09-27T07:19:33.217Z,44.00
2022-09-27T07:22:03.029Z,49.03
2022-09-27T07:24:34.730Z,48.10
2022-09-27T07:27:05.189Z,54.80
2022-09-27T07:29:39.750Z,47.00
2022-09-27T07:32:12.233Z,51.10
2022-09-27T07:34:39.952Z,49.15
2022-09-27T07:37:08.022Z,46.40
2022-09-27T07:39:38.904Z,47.80
2022-09-27T07:42:06.650Z,49.60
2022-09-27T07:44:37.811Z,50.95
2022-09-27T07:47:21.685Z,48.38
2022-09-27T07:50:20.896Z,43.67
2022-09-27T07:52:55.284Z,52.10
2022-09-27T07:55:34.596Z,48.92
2022-09-27T07:58:13.766Z,48.88
2022-09-27T08:00:42.484Z,47.88
2022-09-27T08:03:15.278Z,45.20
2022-09-27T08:05:47.250Z,51.50
2022-09-27T08:08:16.253Z,51.83
2022-09-27T08:10:47.613Z,49.45
2022-09-27T08:13:20.433Z,48.92
2022-09-27T08:15:52.441Z,49.97
2022-09-27T08:18:22.195Z,48.55
2022-09-27T08:20:59.991Z,50.63
2022-09-27T08:23:30.540Z,47.45
2022-09-27T08:26:12.720Z,46.45
2022-09-27T08:28:51.212Z,42.58
2022-09-27T08:31:21.257Z,42.10
2022-09-27T08:33:52.923Z,45.45
2022-09-27T08:36:21.848Z,44.30
2022-09-27T08:38:52.472Z,42.38
2022-09-27T08:41:49.709Z,42.22
2022-09-27T08:44:28.268Z,41.00
2022-09-27T08:47:16.583Z,44.45
2022-09-27T08:49:56.696Z,43.05
2022-09-27T08:52:34.525Z,42.67
2022-09-27T08:55:17.457Z,42.85
2022-09-27T08:57:49.893Z,42.13
2022-09-27T09:00:17.210Z,42.38
2022-09-27T09:02:45.966Z,40.30
2022-09-27T09:05:30.897Z,41.28
2022-09-27T09:08:30.942Z,36.88
2022-09-27T09:11:35.198Z,40.67
2022-09-27T09:14:38.959Z,42.83
2022-09-27T09:17:46.811Z,38.60
2022-09-27T09:20:52.853Z,37.60
2022-09-27T09:23:33.372Z,41.88
2022-09-27T09:26:15.672Z,40.05
2022-09-27T09:29:12.820Z,39.40
2022-09-27T09:31:57.215Z,33.25
2022-09-27T09:34:27.962Z,36.47
2022-09-27T09:37:18.389Z,34.00
2022-09-27T09:39:53.741Z,36.33
2022-09-27T09:42:32.692Z,34.72
2022-09-27T09:45:19.929Z,37.30
2022-09-27T09:47:55.633Z,33.13
2022-09-27T09:50:35.118Z,32.80
2022-09-27T09:53:14.961Z,32.08
2022-09-27T09:55:51.307Z,33.08
2022-09-27T09:58:51.092Z,33.38
2022-09-27T10:01:34.088Z,30.35
2022-09-27T10:04:03.891Z,34.25
2022-09-27T10:06:31.970Z,32.10
2022-09-27T10:09:01.250Z,30.15
2022-09-27T10:11:45.857Z,31.33
2022-09-27T10:14:27.999Z,31.70
2022-09-27T10:17:03.623Z,32.05
2022-09-27T10:19:34.434Z,32.05
2022-09-27T10:22:18.892Z,26.90
2022-09-27T10:25:02.537Z,30.00
2022-09-27T10:27:46.302Z,31.80
2022-09-27T10:30:28.510Z,27.73
2022-09-27T10:33:00.724Z,26.92
2022-09-27T10:35:53.983Z,30.00
2022-09-27T10:38:34.498Z,29.30
2022-09-27T10:41:26.589Z,31.02
2022-09-27T10:44:20.123Z,33.58
2022-09-27T10:46:55.673Z,34.60
2022-09-27T10:49:42.172Z,36.33
2022-09-27T10:52:29.063Z,35.13
2022-09-27T10:55:25.136Z,35.63
2022-09-27T10:57:56.533Z,37.35
2022-09-27T11:00:27.890Z,37.45
2022-09-27T11:02:59.398Z,38.42
2022-09-27T11:05:40.495Z,33.63
2022-09-27T11:08:19.299Z,32.30
2022-09-27T11:11:21.328Z,36.33
2022-09-27T11:14:07.995Z,32.65
2022-09-27T11:17:00.514Z,35.92
2022-09-27T11:19:58.486Z,31.70
2022-09-27T11:22:58.640Z,33.08
2022-09-27T11:26:17.336Z,31.70
2022-09-27T11:29:11.109Z,33.35
2022-09-27T11:31:58.216Z,31.20
2022-09-27T11:35:06.753Z,32.88
2022-09-27T11:38:03.320Z,32.42
2022-09-27T11:41:03.282Z,31.90
2022-09-27T11:43:41.343Z,32.78
2022-09-27T11:46:26.601Z,32.28
2022-09-27T11:49:15.554Z,34.83
2022-09-27T11:51:44.738Z,34.90
2022-09-27T11:54:33.150Z,33.80
2022-09-27T11:57:13.055Z,31.58
2022-09-27T12:00:20.622Z,31.70
2022-09-27T12:03:42.503Z,30.75
2022-09-27T12:06:54.956Z,35.85
2022-09-27T12:09:39.709Z,33.35
2022-09-27T12:12:18.980Z,31.35
2022-09-27T12:15:07.180Z,30.50
2022-09-27T12:17:46.736Z,30.42
2022-09-27T12:20:31.072Z,30.58
2022-09-27T12:23:24.242Z,30.83
2022-09-27T12:26:14.017Z,30.58
2022-09-27T12:29:32.197Z,29.75
2022-09-27T12:32:24.181Z,33.13
2022-09-27T12:35:26.029Z,31.20
2022-09-27T12:38:17.500Z,30.55
2022-09-27T12:40:49.837Z,26.70
2022-09-27T12:43:29.173Z,25.58
2022-09-27T12:46:45.666Z,28.08
2022-09-27T12:49:13.386Z,25.40
2022-09-27T12:51:51.937Z,24.20
2022-09-27T12:54:44.967Z,25.95
2022-09-27T12:57:30.283Z,21.98
2022-09-27T13:00:17.520Z,22.52
2022-09-27T13:03:22.418Z,21.75
2022-09-27T13:06:26.800Z,21.40
2022-09-27T13:09:37.902Z,20.92
2022-09-27T13:12:11.133Z,18.73
2022-09-27T13:15:21.443Z,20.35
2022-09-27T13:18:06.724Z,18.10
2022-09-27T13:20:49.361Z,17.80
2022-09-27T13:23:53.286Z,18.52
2022-09-27T13:26:50.291Z,18.42
2022-09-27T13:29:29.282Z,19.88
2022-09-27T13:32:11.367Z,17.85
2022-09-27T13:35:25.154Z,18.08
2022-09-27T13:38:02.680Z,20.38
2022-09-27T13:40:34.474Z,17.75
2022-09-27T13:43:23.646Z,19.10
2022-09-27T13:49:21.466Z,16.60
2022-09-27T13:52:37.449Z,15.75
2022-09-27T13:55:48.939Z,16.10
2022-09-27T14:03:10.346Z,16.83
2022-09-27T14:06:06.692Z,15.85
2022-09-27T14:08:47.611Z,13.98
2022-09-27T14:11:23.805Z,14.80
2022-09-27T14:14:26.100Z,15.70
2022-09-27T14:17:01.527Z,16.38
2022-09-27T14:19:29.203Z,15.95
2022-09-27T14:21:58.096Z,15.65
2022-09-27T14:24:37.552Z,14.50
2022-09-27T14:27:27.124Z,14.55
2022-09-27T14:30:32.544Z,14.88
2022-09-27T14:33:36.491Z,18.05
2022-09-27T14:36:35.493Z,17.40
2022-09-27T14:39:02.743Z,16.10
2022-09-27T14:41:39.314Z,15.90
2022-09-27T14:44:19.426Z,17.58
2022-09-27T14:47:08.484Z,15.35
2022-09-27T14:49:55.856Z,14.80
2022-09-27T14:52:32.989Z,14.63
2022-09-27T14:55:07.569Z,16.50
2022-09-27T14:57:36.723Z,15.27
2022-09-27T15:00:34.779Z,16.13
2022-09-27T15:03:04.958Z,15.82
2022-09-27T15:05:36.275Z,16.63
2022-09-27T15:08:06.829Z,15.63
2022-09-27T15:10:41.061Z,16.15
2022-09-27T15:13:16.648Z,18.73
2022-09-27T15:15:51.559Z,17.15
2022-09-27T15:18:50.267Z,15.90
2022-09-27T15:21:46.764Z,18.20
2022-09-27T15:24:37.200Z,18.40
2022-09-27T15:27:15.864Z,17.83
2022-09-27T15:30:00.816Z,18.75
2022-09-27T15:32:36.728Z,18.70
2022-09-27T15:35:11.917Z,16.75
2022-09-27T15:37:40.674Z,18.38
2022-09-27T15:40:21.614Z,19.83
2022-09-27T15:43:03.437Z,19.92
2022-09-27T15:45:35.490Z,21.77
2022-09-27T15:48:19.253Z,19.10
2022-09-27T15:50:49.612Z,19.63
2022-09-27T15:53:34.420Z,20.75
2022-09-27T15:56:07.100Z,20.08
2022-09-27T15:58:35.212Z,26.65
2022-09-27T16:01:12.764Z,20.70
2022-09-27T16:03:47.834Z,22.92
2022-09-27T16:06:18.847Z,20.17
2022-09-27T16:08:49.855Z,22.00
2022-09-27T16:11:25.743Z,23.58
2022-09-27T16:13:56.152Z,19.80
2022-09-27T16:16:25.443Z,24.35
2022-09-27T16:18:56.922Z,25.05
2022-09-27T16:21:34.074Z,26.75
2022-09-27T16:24:21.933Z,25.92
2022-09-27T16:26:55.567Z,22.13
2022-09-27T16:32:18.161Z,19.55
2022-09-27T16:34:51.761Z,21.08
2022-09-27T16:37:26.522Z,21.20
2022-09-27T16:39:57.235Z,18.50
2022-09-27T16:42:30.044Z,21.35
2022-09-27T16:45:06.029Z,20.38
2022-09-27T16:47:42.174Z,19.95
2022-09-27T16:50:34.385Z,22.17
2022-09-27T16:53:04.544Z,22.63
2022-09-27T16:58:21.844Z,24.23
2022-09-27T17:00:51.086Z,21.27
2022-09-27T17:06:06.292Z,19.95
2022-09-27T17:08:34.054Z,23.63
2022-09-27T17:11:01.436Z,19.60
2022-09-27T17:13:28.741Z,20.27
2022-09-27T17:15:56.064Z,20.00
2022-09-27T17:18:23.321Z,24.00
2022-09-27T17:20:50.867Z,22.90
2022-09-27T17:23:18.105Z,20.13
2022-09-27T17:25:47.735Z,23.20
2022-09-27T17:28:15.396Z,21.23
2022-09-27T17:30:45.594Z,22.02
2022-09-27T17:33:13.262Z,25.52
2022-09-27T17:35:40.084Z,21.73
2022-09-27T17:38:11.289Z,23.60
2022-09-27T17:40:49.367Z,21.05
2022-09-27T17:43:16.441Z,22.17
2022-09-27T17:45:44.316Z,22.50
2022-09-27T17:48:31.443Z,22.88
2022-09-27T17:51:03.966Z,24.60
2022-09-27T17:53:35.484Z,23.40
2022-09-27T17:56:05.729Z,23.95
2022-09-27T17:58:33.196Z,24.17
2022-09-27T18:01:07.626Z,25.05
2022-09-27T18:03:37.429Z,27.58
2022-09-27T18:06:09.606Z,23.98
2022-09-27T18:08:39.851Z,23.90
2022-09-27T18:11:13.635Z,30.90
2022-09-27T18:13:44.153Z,27.10
2022-09-27T18:16:23.394Z,27.27
2022-09-27T18:18:51.975Z,32.33
2022-09-27T18:21:23.825Z,31.10
2022-09-27T18:23:53.002Z,31.15
2022-09-27T18:26:29.329Z,33.50
2022-09-27T18:29:01.689Z,33.88
2022-09-27T18:31:29.140Z,37.50
2022-09-27T18:33:56.783Z,32.75
2022-09-27T18:36:32.677Z,35.47
2022-09-27T18:39:20.615Z,37.25
2022-09-27T18:41:54.112Z,31.90
2022-09-27T18:44:23.616Z,33.72
2022-09-27T18:46:52.323Z,31.95
2022-09-27T18:49:25.379Z,30.63
2022-09-27T18:52:01.526Z,31.52
2022-09-27T18:54:28.410Z,30.25
2022-09-27T18:56:55.555Z,27.50
2022-09-27T18:59:26.335Z,27.30
2022-09-27T19:01:53.750Z,27.33
2022-09-27T19:04:25.034Z,28.52
2022-09-27T19:07:03.022Z,26.23
2022-09-27T19:09:32.635Z,28.83
2022-09-27T19:12:04.112Z,30.88
2022-09-27T19:14:31.229Z,28.23
2022-09-27T19:16:58.218Z,29.23
2022-09-27T19:19:28.877Z,29.65
2022-09-27T19:21:56.730Z,31.75
2022-09-27T19:24:30.723Z,27.92
2022-09-27T19:26:57.672Z,28.10
2022-09-27T19:29:42.795Z,28.48
2022-09-27T19:32:26.662Z,29.63
2022-09-27T19:35:02.433Z,25.48
2022-09-27T19:37:29.503Z,29.83
2022-09-27T19:39:59.080Z,27.73
2022-09-27T19:42:27.249Z,26.83
2022-09-27T19:44:55.118Z,27.88
2022-09-27T19:47:22.336Z,26.75
2022-09-27T19:49:49.199Z,28.20
2022-09-27T19:52:16.380Z,27.95
2022-09-27T19:54:43.210Z,27.58
2022-09-27T19:57:10.115Z,26.45
2022-09-27T19:59:36.979Z,27.27
2022-09-27T20:02:04.185Z,24.83
2022-09-27T20:04:31.305Z,24.63
2022-09-27T20:06:59.564Z,24.63
2022-09-27T20:09:27.732Z,25.33
2022-09-27T20:11:55.129Z,23.00
2022-09-27T20:14:22.318Z,23.20
2022-09-27T20:16:50.214Z,23.33
2022-09-27T20:19:17.227Z,22.75
2022-09-27T20:21:45.894Z,24.73
2022-09-27T20:24:12.909Z,22.17
2022-09-27T20:26:40.096Z,23.60
2022-09-27T20:29:07.512Z,25.70
2022-09-27T20:31:56.973Z,22.80
2022-09-27T20:34:31.417Z,22.27
2022-09-27T20:36:59.748Z,23.27
2022-09-27T20:39:27.257Z,21.55
2022-09-27T20:41:55.358Z,23.88
2022-09-27T20:44:22.219Z,25.25
2022-09-27T20:46:49.756Z,24.58
2022-09-27T20:49:18.648Z,27.60
2022-09-27T20:51:49.168Z,24.10
2022-09-27T20:54:15.952Z,27.85
2022-09-27T20:56:46.190Z,26.17
2022-09-27T20:59:19.164Z,28.30
2022-09-27T21:01:50.650Z,26.50
2022-09-27T21:04:25.723Z,26.55
2022-09-27T21:06:58.255Z,25.05
2022-09-27T21:09:32.431Z,27.38
2022-09-27T21:12:02.847Z,28.50
2022-09-27T21:14:38.694Z,26.35
2022-09-27T21:17:08.553Z,24.00
2022-09-27T21:19:35.315Z,24.58
2022-09-27T21:22:04.103Z,24.85
2022-09-27T21:24:31.271Z,25.25
2022-09-27T21:26:58.736Z,22.95
2022-09-27T21:29:25.535Z,25.45
2022-09-27T21:31:52.449Z,23.42
2022-09-27T21:34:19.476Z,23.98
2022-09-27T21:36:49.675Z,24.75
2022-09-27T21:39:16.974Z,25.98
2022-09-27T21:41:43.794Z,26.20
2022-09-27T21:44:13.629Z,28.73
2022-09-27T21:46:41.958Z,26.00
2022-09-27T21:49:09.216Z,23.85
2022-09-27T21:51:43.524Z,22.83
2022-09-27T21:54:16.667Z,21.88
2022-09-27T21:56:44.507Z,25.98
